sensor_id;sensor_type;location;lat;lon;timestamp;pressure;altitude;pressure_sealevel;temperature;humidity
48386;BME280;34644;47.964;7.982;2023-02-24T00:00:44;96155.28;;;16.02;69.53
48386;BME280;34644;47.964;7.982;2023-02-24T00:07:51;96155.56;;;16.01;69.71
48386;BME280;34644;47.964;7.982;2023-02-24T00:14:51;96151.31;;;16.00;69.60
48386;BME280;34644;47.964;7.982;2023-02-24T00:21:52;96147.34;;;15.97;69.60
48386;BME280;34644;47.964;7.982;2023-02-24T00:28:53;96140.44;;;15.96;69.38
48386;BME280;34644;47.964;7.982;2023-02-24T00:35:53;96139.66;;;15.96;69.43
48386;BME280;34644;47.964;7.982;2023-02-24T00:42:54;96138.06;;;15.95;69.15
48386;BME280;34644;47.964;7.982;2023-02-24T00:49:54;96126.66;;;15.94;68.94
48386;BME280;34644;47.964;7.982;2023-02-24T00:56:55;96136.19;;;15.95;68.86
48386;BME280;34644;47.964;7.982;2023-02-24T01:03:56;96130.09;;;15.95;68.73
48386;BME280;34644;47.964;7.982;2023-02-24T01:10:56;96130.09;;;15.95;68.82
48386;BME280;34644;47.964;7.982;2023-02-24T01:18:16;96118.69;;;15.94;68.57
48386;BME280;34644;47.964;7.982;2023-02-24T01:25:17;96107.22;;;15.94;68.46
48386;BME280;34644;47.964;7.982;2023-02-24T01:32:19;96098.47;;;15.93;68.26
48386;BME280;34644;47.964;7.982;2023-02-24T01:39:20;96097.69;;;15.93;68.34
48386;BME280;34644;47.964;7.982;2023-02-24T01:46:20;96093.44;;;15.91;68.16
48386;BME280;34644;47.964;7.982;2023-02-24T01:53:22;96088.91;;;15.92;68.09
48386;BME280;34644;47.964;7.982;2023-02-24T02:00:23;96091.84;;;15.90;68.14
48386;BME280;34644;47.964;7.982;2023-02-24T02:07:46;96094.50;;;15.90;68.07
48386;BME280;34644;47.964;7.982;2023-02-24T02:14:51;96084.16;;;15.89;68.06
48386;BME280;34644;47.964;7.982;2023-02-24T02:36:05;96065.31;;;15.85;67.99
48386;BME280;34644;47.964;7.982;2023-02-24T02:43:17;96059.50;;;15.83;68.00
48386;BME280;34644;47.964;7.982;2023-02-24T02:50:24;96057.13;;;15.82;67.84
48386;BME280;34644;47.964;7.982;2023-02-24T02:57:28;96064.81;;;15.83;67.86
48386;BME280;34644;47.964;7.982;2023-02-24T03:04:29;96065.38;;;15.80;67.99
48386;BME280;34644;47.964;7.982;2023-02-24T03:11:29;96066.44;;;15.79;67.76
48386;BME280;34644;47.964;7.982;2023-02-24T03:18:32;96062.22;;;15.78;67.87
48386;BME280;34644;47.964;7.982;2023-02-24T03:25:36;96061.94;;;15.80;67.84
48386;BME280;34644;47.964;7.982;2023-02-24T03:32:40;96055.81;;;15.79;67.69
48386;BME280;34644;47.964;7.982;2023-02-24T03:39:50;96055.56;;;15.76;67.71
48386;BME280;34644;47.964;7.982;2023-02-24T03:46:55;96067.81;;;15.77;67.55
48386;BME280;34644;47.964;7.982;2023-02-24T04:01:29;96058.22;;;15.76;67.58
48386;BME280;34644;47.964;7.982;2023-02-24T04:08:34;96050.25;;;15.76;67.51
48386;BME280;34644;47.964;7.982;2023-02-24T04:15:38;96051.03;;;15.76;67.46
48386;BME280;34644;47.964;7.982;2023-02-24T04:22:44;96039.91;;;15.74;67.42
48386;BME280;34644;47.964;7.982;2023-02-24T04:29:50;96035.38;;;15.74;67.34
48386;BME280;34644;47.964;7.982;2023-02-24T04:36:52;96021.31;;;15.74;67.39
48386;BME280;34644;47.964;7.982;2023-02-24T04:43:52;96031.41;;;15.77;67.53
48386;BME280;34644;47.964;7.982;2023-02-24T04:50:53;96022.59;;;15.82;67.91
48386;BME280;34644;47.964;7.982;2023-02-24T04:57:54;96004.91;;;15.96;67.72
48386;BME280;34644;47.964;7.982;2023-02-24T05:04:55;95995.53;;;16.04;67.53
48386;BME280;34644;47.964;7.982;2023-02-24T05:11:55;95987.41;;;16.14;67.33
48386;BME280;34644;47.964;7.982;2023-02-24T05:18:56;95977.03;;;16.18;67.37
48386;BME280;34644;47.964;7.982;2023-02-24T05:26:16;95961.56;;;16.20;67.36
48386;BME280;34644;47.964;7.982;2023-02-24T05:33:17;95948.00;;;16.21;67.25
48386;BME280;34644;47.964;7.982;2023-02-24T05:40:20;95945.56;;;16.25;67.46
48386;BME280;34644;47.964;7.982;2023-02-24T05:47:23;95933.69;;;16.17;66.53
48386;BME280;34644;47.964;7.982;2023-02-24T05:54:26;95936.19;;;15.84;62.67
48386;BME280;34644;47.964;7.982;2023-02-24T06:01:30;95930.00;;;15.65;60.30
48386;BME280;34644;47.964;7.982;2023-02-24T06:08:31;95938.13;;;15.49;58.57
48386;BME280;34644;47.964;7.982;2023-02-24T06:15:41;95942.72;;;15.44;58.11
48386;BME280;34644;47.964;7.982;2023-02-24T06:22:49;95954.44;;;15.37;57.28
48386;BME280;34644;47.964;7.982;2023-02-24T06:29:53;95959.63;;;15.24;56.33
48386;BME280;34644;47.964;7.982;2023-02-24T06:36:54;95960.16;;;15.20;56.15
48386;BME280;34644;47.964;7.982;2023-02-24T06:43:54;95949.88;;;15.14;56.13
48386;BME280;34644;47.964;7.982;2023-02-24T06:50:54;95961.88;;;15.06;55.65
48386;BME280;34644;47.964;7.982;2023-02-24T06:57:57;95948.84;;;15.10;55.91
48386;BME280;34644;47.964;7.982;2023-02-24T07:04:57;95947.13;;;15.24;56.50
48386;BME280;34644;47.964;7.982;2023-02-24T07:11:58;95926.59;;;15.35;58.01
48386;BME280;34644;47.964;7.982;2023-02-24T07:19:02;95924.31;;;15.23;57.41
48386;BME280;34644;47.964;7.982;2023-02-24T07:26:07;95913.97;;;15.22;56.77
48386;BME280;34644;47.964;7.982;2023-02-24T07:33:11;95907.63;;;15.17;56.47
48386;BME280;34644;47.964;7.982;2023-02-24T07:40:13;95905.50;;;15.19;56.29
48386;BME280;34644;47.964;7.982;2023-02-24T07:47:16;95892.47;;;15.23;55.98
48386;BME280;34644;47.964;7.982;2023-02-24T07:54:18;95887.38;;;15.27;56.02
48386;BME280;34644;47.964;7.982;2023-02-24T08:01:20;95904.94;;;15.23;55.37
48386;BME280;34644;47.964;7.982;2023-02-24T08:08:23;95897.84;;;15.13;55.28
48386;BME280;34644;47.964;7.982;2023-02-24T08:15:25;95902.28;;;15.23;55.28
48386;BME280;34644;47.964;7.982;2023-02-24T08:22:30;95895.19;;;15.13;55.62
48386;BME280;34644;47.964;7.982;2023-02-24T08:29:37;95875.56;;;15.14;56.23
48386;BME280;34644;47.964;7.982;2023-02-24T08:36:57;95865.38;;;15.26;55.65
48386;BME280;34644;47.964;7.982;2023-02-24T08:43:57;95845.25;;;15.44;56.40
48386;BME280;34644;47.964;7.982;2023-02-24T08:50:58;95852.31;;;15.54;57.75
48386;BME280;34644;47.964;7.982;2023-02-24T08:58:00;95843.00;;;15.56;58.25
48386;BME280;34644;47.964;7.982;2023-02-24T09:05:02;95850.03;;;15.66;58.51
48386;BME280;34644;47.964;7.982;2023-02-24T09:12:02;95844.38;;;15.73;59.03
48386;BME280;34644;47.964;7.982;2023-02-24T09:19:03;95841.44;;;15.99;59.43
48386;BME280;34644;47.964;7.982;2023-02-24T09:26:35;95837.69;;;16.19;60.07
48386;BME280;34644;47.964;7.982;2023-02-24T09:33:44;95841.00;;;16.10;60.33
48386;BME280;34644;47.964;7.982;2023-02-24T09:40:50;95830.81;;;15.99;60.66
48386;BME280;34644;47.964;7.982;2023-02-24T09:47:51;95831.94;;;15.93;60.04
48386;BME280;34644;47.964;7.982;2023-02-24T09:54:54;95817.66;;;15.88;60.36
48386;BME280;34644;47.964;7.982;2023-02-24T10:02:23;95815.94;;;15.98;60.30
48386;BME280;34644;47.964;7.982;2023-02-24T10:09:34;95804.72;;;16.01;60.48
48386;BME280;34644;47.964;7.982;2023-02-24T10:16:36;95791.63;;;16.23;61.48
48386;BME280;34644;47.964;7.982;2023-02-24T10:23:51;95796.25;;;16.18;61.70
48386;BME280;34644;47.964;7.982;2023-02-24T10:30:58;95777.50;;;16.09;61.84
48386;BME280;34644;47.964;7.982;2023-02-24T10:38:09;95779.66;;;16.07;61.90
48386;BME280;34644;47.964;7.982;2023-02-24T10:45:19;95773.34;;;16.03;61.28
48386;BME280;34644;47.964;7.982;2023-02-24T10:52:23;95761.91;;;16.02;61.55
48386;BME280;34644;47.964;7.982;2023-02-24T10:59:57;95753.94;;;16.02;61.33
48386;BME280;34644;47.964;7.982;2023-02-24T11:07:18;95751.00;;;16.04;61.52
48386;BME280;34644;47.964;7.982;2023-02-24T11:14:38;95741.44;;;16.03;61.47
48386;BME280;34644;47.964;7.982;2023-02-24T11:22:04;95728.63;;;16.05;61.39
48386;BME280;34644;47.964;7.982;2023-02-24T11:43:15;95698.41;;;17.22;59.57
48386;BME280;34644;47.964;7.982;2023-02-24T11:57:30;95673.84;;;17.25;59.66
48386;BME280;34644;47.964;7.982;2023-02-24T12:04:37;95657.88;;;17.25;59.74
48386;BME280;34644;47.964;7.982;2023-02-24T12:12:03;95648.28;;;17.24;59.88
48386;BME280;34644;47.964;7.982;2023-02-24T12:19:17;95650.97;;;17.24;59.94
48386;BME280;34644;47.964;7.982;2023-02-24T12:34:25;95638.53;;;17.20;60.27
48386;BME280;34644;47.964;7.982;2023-02-24T13:24:19;95571.28;;;17.14;61.09
48386;BME280;34644;47.964;7.982;2023-02-24T13:31:19;95557.31;;;17.08;61.16
48386;BME280;34644;47.964;7.982;2023-02-24T13:38:33;95552.91;;;17.04;61.31
48386;BME280;34644;47.964;7.982;2023-02-24T13:45:38;95542.38;;;16.98;61.40
48386;BME280;34644;47.964;7.982;2023-02-24T13:52:45;95537.66;;;16.95;61.45
48386;BME280;34644;47.964;7.982;2023-02-24T14:06:56;95521.38;;;16.83;61.72
48386;BME280;34644;47.964;7.982;2023-02-24T14:13:58;95523.06;;;16.79;61.84
48386;BME280;34644;47.964;7.982;2023-02-24T14:20:58;95512.41;;;16.79;61.82
48386;BME280;34644;47.964;7.982;2023-02-24T14:27:58;95502.75;;;16.83;61.80
48386;BME280;34644;47.964;7.982;2023-02-24T14:34:59;95488.00;;;16.77;61.96
48386;BME280;34644;47.964;7.982;2023-02-24T14:42:18;95495.78;;;16.73;62.07
48386;BME280;34644;47.964;7.982;2023-02-24T14:49:23;95463.66;;;16.70;61.98
48386;BME280;34644;47.964;7.982;2023-02-24T14:56:26;95470.88;;;16.69;62.17
48386;BME280;34644;47.964;7.982;2023-02-24T15:03:32;95471.47;;;16.66;62.17
48386;BME280;34644;47.964;7.982;2023-02-24T15:10:34;95455.78;;;16.64;62.27
48386;BME280;34644;47.964;7.982;2023-02-24T15:17:38;95453.44;;;16.63;62.29
48386;BME280;34644;47.964;7.982;2023-02-24T15:24:39;95453.44;;;16.63;62.16
48386;BME280;34644;47.964;7.982;2023-02-24T15:31:45;95446.88;;;16.60;62.34
48386;BME280;34644;47.964;7.982;2023-02-24T15:38:45;95440.56;;;16.56;62.38
48386;BME280;34644;47.964;7.982;2023-02-24T15:45:46;95433.19;;;16.53;62.46
48386;BME280;34644;47.964;7.982;2023-02-24T15:52:48;95428.94;;;16.52;62.51
48386;BME280;34644;47.964;7.982;2023-02-24T15:59:48;95427.69;;;16.50;62.37
48386;BME280;34644;47.964;7.982;2023-02-24T16:06:50;95413.56;;;16.49;62.37
48386;BME280;34644;47.964;7.982;2023-02-24T16:13:56;95397.13;;;16.47;62.44
48386;BME280;34644;47.964;7.982;2023-02-24T16:20:57;95390.25;;;16.46;62.45
48386;BME280;34644;47.964;7.982;2023-02-24T16:27:57;95390.53;;;16.44;62.45
48386;BME280;34644;47.964;7.982;2023-02-24T16:34:57;95391.34;;;16.45;62.31
48386;BME280;34644;47.964;7.982;2023-02-24T16:41:58;95390.88;;;16.66;62.22
48386;BME280;34644;47.964;7.982;2023-02-24T16:48:58;95387.56;;;17.05;61.15
48386;BME280;34644;47.964;7.982;2023-02-24T16:55:59;95392.47;;;17.12;60.98
48386;BME280;34644;47.964;7.982;2023-02-24T17:02:59;95389.84;;;17.21;60.74
48386;BME280;34644;47.964;7.982;2023-02-24T17:10:03;95376.84;;;17.19;60.81
48386;BME280;34644;47.964;7.982;2023-02-24T17:17:03;95378.06;;;17.13;60.97
48386;BME280;34644;47.964;7.982;2023-02-24T17:24:03;95393.06;;;17.09;61.25
48386;BME280;34644;47.964;7.982;2023-02-24T17:31:04;95387.25;;;17.07;61.32
48386;BME280;34644;47.964;7.982;2023-02-24T17:38:13;95381.47;;;17.05;61.41
48386;BME280;34644;47.964;7.982;2023-02-24T17:45:14;95382.63;;;16.90;61.89
48386;BME280;34644;47.964;7.982;2023-02-24T17:52:14;95381.75;;;16.80;62.13
48386;BME280;34644;47.964;7.982;2023-02-24T17:59:14;95393.50;;;16.79;62.11
48386;BME280;34644;47.964;7.982;2023-02-24T18:06:15;95372.31;;;16.74;62.03
48386;BME280;34644;47.964;7.982;2023-02-24T18:13:15;95386.72;;;16.73;62.25
48386;BME280;34644;47.964;7.982;2023-02-24T18:20:15;95397.97;;;16.70;62.07
48386;BME280;34644;47.964;7.982;2023-02-24T18:27:16;95389.78;;;16.67;62.17
48386;BME280;34644;47.964;7.982;2023-02-24T18:34:17;95379.44;;;16.65;62.32
48386;BME280;34644;47.964;7.982;2023-02-24T18:41:19;95386.63;;;16.64;62.20
48386;BME280;34644;47.964;7.982;2023-02-24T18:48:19;95385.09;;;16.63;62.29
48386;BME280;34644;47.964;7.982;2023-02-24T18:55:20;95370.50;;;16.61;62.20
48386;BME280;34644;47.964;7.982;2023-02-24T19:02:21;95380.38;;;16.60;62.22
48386;BME280;34644;47.964;7.982;2023-02-24T19:09:21;95382.53;;;16.58;62.37
48386;BME280;34644;47.964;7.982;2023-02-24T19:16:23;95376.44;;;16.58;62.34
48386;BME280;34644;47.964;7.982;2023-02-24T19:23:23;95382.81;;;16.57;62.38
48386;BME280;34644;47.964;7.982;2023-02-24T19:30:24;95383.13;;;16.55;62.26
48386;BME280;34644;47.964;7.982;2023-02-24T19:37:24;95400.19;;;16.54;62.37
48386;BME280;34644;47.964;7.982;2023-02-24T19:44:25;95384.22;;;16.54;62.42
48386;BME280;34644;47.964;7.982;2023-02-24T19:51:31;95385.31;;;16.53;62.49
48386;BME280;34644;47.964;7.982;2023-02-24T19:58:32;95389.03;;;16.52;62.50
48386;BME280;34644;47.964;7.982;2023-02-24T20:05:34;95390.91;;;16.52;62.50
48386;BME280;34644;47.964;7.982;2023-02-24T20:12:34;95390.16;;;16.51;62.56
48386;BME280;34644;47.964;7.982;2023-02-24T20:19:34;95394.97;;;16.49;62.62
48386;BME280;34644;47.964;7.982;2023-02-24T20:26:35;95411.72;;;16.50;63.05
48386;BME280;34644;47.964;7.982;2023-02-24T20:33:37;95425.03;;;16.50;62.70
48386;BME280;34644;47.964;7.982;2023-02-24T20:40:38;95430.34;;;16.50;62.85
48386;BME280;34644;47.964;7.982;2023-02-24T20:47:38;95416.84;;;16.46;63.20
48386;BME280;34644;47.964;7.982;2023-02-24T20:54:39;95440.75;;;16.46;63.25
48386;BME280;34644;47.964;7.982;2023-02-24T21:01:39;95439.22;;;16.45;63.28
48386;BME280;34644;47.964;7.982;2023-02-24T21:08:40;95426.22;;;16.43;63.27
48386;BME280;34644;47.964;7.982;2023-02-24T21:15:49;95419.31;;;16.42;63.35
48386;BME280;34644;47.964;7.982;2023-02-24T21:22:50;95442.47;;;16.42;63.30
48386;BME280;34644;47.964;7.982;2023-02-24T21:29:51;95454.19;;;16.41;63.34
48386;BME280;34644;47.964;7.982;2023-02-24T21:36:52;95469.34;;;16.40;63.34
48386;BME280;34644;47.964;7.982;2023-02-24T21:43:54;95471.53;;;16.38;63.42
48386;BME280;34644;47.964;7.982;2023-02-24T21:51:05;95482.94;;;16.39;63.42
48386;BME280;34644;47.964;7.982;2023-02-24T21:58:05;95497.31;;;16.38;63.45
48386;BME280;34644;47.964;7.982;2023-02-24T22:05:06;95533.75;;;16.37;63.51
48386;BME280;34644;47.964;7.982;2023-02-24T22:12:06;95542.81;;;16.36;63.46
48386;BME280;34644;47.964;7.982;2023-02-24T22:19:06;95535.94;;;16.35;63.51
48386;BME280;34644;47.964;7.982;2023-02-24T22:26:08;95560.66;;;16.36;63.54
48386;BME280;34644;47.964;7.982;2023-02-24T22:33:08;95558.28;;;16.34;63.45
48386;BME280;34644;47.964;7.982;2023-02-24T22:40:09;95555.63;;;16.34;63.46
48386;BME280;34644;47.964;7.982;2023-02-24T22:47:09;95565.47;;;16.34;63.46
48386;BME280;34644;47.964;7.982;2023-02-24T22:54:10;95574.53;;;16.33;63.52
48386;BME280;34644;47.964;7.982;2023-02-24T23:01:11;95595.03;;;16.32;63.56
48386;BME280;34644;47.964;7.982;2023-02-24T23:08:12;95614.41;;;16.33;63.45
48386;BME280;34644;47.964;7.982;2023-02-24T23:15:12;95579.84;;;16.33;63.60
48386;BME280;34644;47.964;7.982;2023-02-24T23:22:12;95579.84;;;16.33;63.52
48386;BME280;34644;47.964;7.982;2023-02-24T23:29:14;95553.56;;;16.31;63.68
48386;BME280;34644;47.964;7.982;2023-02-24T23:36:16;95550.91;;;16.31;63.62
48386;BME280;34644;47.964;7.982;2023-02-24T23:43:17;95564.97;;;16.32;63.32
48386;BME280;34644;47.964;7.982;2023-02-24T23:50:17;95542.63;;;16.33;63.69
48386;BME280;34644;47.964;7.982;2023-02-24T23:57:18;95534.66;;;16.33;63.60
